createdAt,value
2019-03-10T00:01:10.931Z,11.62
2019-03-10T00:03:38.569Z,11.58
2019-03-10T00:06:05.776Z,11.64
2019-03-10T00:08:32.879Z,11.62
2019-03-10T00:10:59.947Z,11.50
2019-03-10T00:13:27.621Z,11.66
2019-03-10T00:15:56.533Z,11.56
2019-03-10T00:18:24.020Z,11.59
2019-03-10T00:20:51.069Z,11.54
2019-03-10T00:23:18.363Z,11.49
2019-03-10T00:25:48.586Z,11.54
2019-03-10T00:28:15.683Z,11.54
2019-03-10T00:30:42.738Z,11.47
2019-03-10T00:33:10.737Z,11.42
2019-03-10T00:35:38.872Z,11.53
2019-03-10T00:38:06.220Z,11.61
2019-03-10T00:41:10.604Z,11.65
2019-03-10T00:44:06.159Z,11.63
2019-03-10T00:47:12.622Z,11.75
2019-03-10T00:50:26.955Z,11.91
2019-03-10T00:53:00.684Z,11.96
2019-03-10T00:55:28.117Z,11.86
2019-03-10T00:57:55.209Z,11.81
2019-03-10T01:00:22.279Z,11.83
2019-03-10T01:02:51.328Z,11.93
2019-03-10T01:05:18.429Z,11.98
2019-03-10T01:07:45.678Z,12.05
2019-03-10T01:10:13.367Z,12.07
2019-03-10T01:12:40.729Z,12.11
2019-03-10T01:15:08.649Z,12.10
2019-03-10T01:17:36.871Z,12.12
2019-03-10T01:20:06.342Z,12.15
2019-03-10T01:22:34.192Z,12.20
2019-03-10T01:25:03.314Z,12.33
2019-03-10T01:27:32.514Z,12.35
2019-03-10T01:30:01.696Z,12.39
2019-03-10T01:33:05.407Z,12.17
2019-03-10T01:35:38.282Z,11.96
2019-03-10T01:38:05.547Z,11.78
2019-03-10T01:40:32.651Z,11.64
2019-03-10T01:42:59.725Z,11.61
2019-03-10T01:45:26.806Z,11.73
2019-03-10T01:47:54.967Z,11.48
2019-03-10T01:50:22.061Z,11.45
2019-03-10T01:52:49.515Z,11.47
2019-03-10T01:55:16.582Z,11.60
2019-03-10T01:57:43.706Z,11.67
2019-03-10T02:00:13.344Z,11.71
2019-03-10T02:02:44.623Z,11.94
2019-03-10T02:05:11.784Z,11.94
2019-03-10T02:07:39.346Z,11.98
2019-03-10T02:10:07.911Z,12.06
2019-03-10T02:12:36.594Z,12.24
2019-03-10T02:15:04.845Z,12.39
2019-03-10T02:17:32.545Z,12.44
2019-03-10T02:19:59.768Z,12.58
2019-03-10T02:22:27.387Z,12.47
2019-03-10T02:24:54.474Z,12.55
2019-03-10T02:27:23.711Z,12.60
2019-03-10T02:29:51.248Z,12.51
2019-03-10T02:32:18.387Z,12.45
2019-03-10T02:34:47.262Z,12.34
2019-03-10T02:37:14.809Z,12.34
2019-03-10T02:39:41.934Z,12.28
2019-03-10T02:42:08.999Z,12.08
2019-03-10T02:44:36.458Z,12.04
2019-03-10T02:47:03.586Z,12.05
2019-03-10T02:49:30.691Z,12.06
2019-03-10T02:51:57.920Z,12.00
2019-03-10T02:54:25.660Z,11.99
2019-03-10T02:56:52.985Z,11.99
2019-03-10T02:59:20.463Z,12.09
2019-03-10T03:01:48.014Z,12.05
2019-03-10T03:04:15.562Z,12.11
2019-03-10T03:06:42.675Z,12.15
2019-03-10T03:09:09.757Z,12.05
2019-03-10T03:11:37.651Z,12.23
2019-03-10T03:14:07.825Z,12.33
2019-03-10T03:16:35.282Z,12.50
2019-03-10T03:19:02.484Z,12.65
2019-03-10T03:21:42.203Z,12.63
2019-03-10T03:23:58.662Z,12.55
2019-03-10T03:26:25.941Z,12.45
2019-03-10T03:28:54.188Z,12.37
2019-03-10T03:31:22.652Z,12.41
2019-03-10T03:33:50.821Z,12.45
2019-03-10T03:36:29.752Z,12.47
2019-03-10T03:39:27.230Z,12.31
2019-03-10T03:41:54.430Z,12.36
2019-03-10T03:44:21.516Z,12.35
2019-03-10T03:46:48.623Z,12.53
2019-03-10T03:49:15.755Z,12.46
2019-03-10T03:51:42.924Z,12.29
2019-03-10T03:54:11.214Z,11.92
2019-03-10T03:56:38.345Z,11.59
2019-03-10T03:59:05.440Z,11.38
2019-03-10T04:01:45.106Z,11.40
2019-03-10T04:04:12.196Z,11.29
2019-03-10T04:06:39.240Z,11.14
2019-03-10T04:09:07.401Z,11.23
2019-03-10T04:11:36.494Z,11.03
2019-03-10T04:14:03.891Z,10.98
2019-03-10T04:16:31.437Z,10.84
2019-03-10T04:18:58.492Z,10.91
2019-03-10T04:21:27.396Z,11.10
2019-03-10T04:23:54.618Z,11.31
2019-03-10T04:26:22.180Z,11.18
2019-03-10T04:28:51.110Z,11.23
2019-03-10T04:31:18.263Z,11.35
2019-03-10T04:33:45.334Z,11.43
2019-03-10T04:36:13.504Z,11.15
2019-03-10T04:38:40.819Z,11.25
2019-03-10T04:41:08.199Z,11.20
2019-03-10T04:43:35.274Z,11.18
2019-03-10T04:46:02.389Z,11.22
2019-03-10T04:48:29.441Z,11.10
2019-03-10T04:50:56.510Z,11.07
2019-03-10T04:53:23.657Z,11.04
2019-03-10T04:56:13.972Z,10.90
2019-03-10T04:58:46.319Z,11.07
2019-03-10T05:01:13.375Z,11.14
2019-03-10T05:03:40.447Z,11.17
2019-03-10T05:06:07.808Z,11.16
2019-03-10T05:08:35.304Z,11.07
2019-03-10T05:11:02.406Z,11.00
2019-03-10T05:13:29.579Z,10.77
2019-03-10T05:15:56.641Z,10.71
2019-03-10T05:18:26.001Z,10.64
2019-03-10T05:20:53.137Z,10.65
2019-03-10T05:23:40.232Z,10.57
2019-03-10T05:26:07.817Z,10.50
2019-03-10T05:28:36.683Z,10.28
2019-03-10T05:31:03.781Z,10.32
2019-03-10T05:33:31.955Z,10.29
2019-03-10T05:35:59.368Z,10.18
2019-03-10T05:38:28.251Z,10.07
2019-03-10T05:40:55.365Z,10.05
2019-03-10T05:43:23.543Z,10.04
2019-03-10T05:45:50.638Z,10.12
2019-03-10T05:48:17.766Z,10.13
2019-03-10T05:50:44.843Z,10.04
2019-03-10T05:53:12.087Z,10.13
2019-03-10T05:55:40.408Z,10.05
2019-03-10T05:58:07.511Z,10.17
2019-03-10T06:00:42.689Z,10.06
2019-03-10T06:03:04.180Z,9.97
2019-03-10T06:05:31.419Z,9.93
2019-03-10T06:07:58.506Z,9.88
2019-03-10T06:10:25.745Z,9.81
2019-03-10T06:12:52.849Z,9.77
2019-03-10T06:15:21.053Z,9.80
2019-03-10T06:17:48.751Z,9.84
2019-03-10T06:20:15.810Z,9.78
2019-03-10T06:22:42.914Z,9.83
2019-03-10T06:25:10.322Z,9.88
2019-03-10T06:27:38.782Z,9.91
2019-03-10T06:30:07.565Z,9.90
2019-03-10T06:32:34.984Z,9.86
2019-03-10T06:35:02.044Z,9.73
2019-03-10T06:37:29.170Z,9.80
2019-03-10T06:39:56.659Z,9.70
2019-03-10T06:42:25.187Z,9.63
2019-03-10T06:44:54.065Z,9.80
2019-03-10T06:47:24.246Z,9.75
2019-03-10T06:49:51.825Z,9.66
2019-03-10T06:52:19.021Z,9.64
2019-03-10T06:54:46.351Z,9.59
2019-03-10T06:57:13.417Z,9.71
2019-03-10T06:59:42.311Z,9.63
2019-03-10T07:02:09.606Z,9.58
2019-03-10T07:04:39.372Z,9.64
2019-03-10T07:07:06.451Z,9.79
2019-03-10T07:09:35.295Z,9.87
2019-03-10T07:12:02.403Z,9.73
2019-03-10T07:14:31.264Z,9.86
2019-03-10T07:16:58.423Z,9.84
2019-03-10T07:19:25.523Z,9.81
2019-03-10T07:21:52.597Z,9.75
2019-03-10T07:24:19.785Z,9.67
2019-03-10T07:26:48.892Z,9.76
2019-03-10T07:29:21.331Z,9.81
2019-03-10T07:32:09.069Z,9.78
2019-03-10T07:34:54.679Z,9.78
2019-03-10T07:37:44.297Z,9.84
2019-03-10T07:40:27.710Z,9.96
2019-03-10T07:43:16.214Z,10.06
2019-03-10T07:46:03.877Z,10.16
2019-03-10T07:48:59.737Z,10.13
2019-03-10T07:51:45.569Z,10.17
2019-03-10T07:54:32.259Z,10.16
2019-03-10T07:57:19.635Z,10.28
2019-03-10T08:00:21.449Z,10.39
2019-03-10T08:03:00.670Z,10.57
2019-03-10T08:05:45.998Z,10.79
2019-03-10T08:08:50.605Z,10.86
2019-03-10T08:11:37.592Z,10.80
2019-03-10T08:14:33.429Z,10.98
2019-03-10T08:17:18.474Z,11.02
2019-03-10T08:20:05.224Z,11.10
2019-03-10T08:22:47.247Z,11.13
2019-03-10T08:25:37.136Z,11.24
2019-03-10T08:28:20.382Z,11.45
2019-03-10T08:31:26.128Z,11.49
2019-03-10T08:34:12.856Z,11.59
2019-03-10T08:36:55.910Z,11.70
2019-03-10T08:39:43.029Z,11.92
2019-03-10T08:42:20.445Z,12.03
2019-03-10T08:45:10.092Z,11.99
2019-03-10T08:47:47.593Z,12.08
2019-03-10T08:50:40.790Z,12.01
2019-03-10T08:53:14.979Z,12.10
2019-03-10T08:56:00.167Z,12.21
2019-03-10T08:58:36.746Z,12.36
2019-03-10T09:01:30.063Z,12.41
2019-03-10T09:04:15.793Z,12.60
2019-03-10T09:06:50.847Z,12.90
2019-03-10T09:09:25.374Z,13.34
2019-03-10T09:11:58.951Z,13.41
2019-03-10T09:14:35.997Z,13.33
2019-03-10T09:17:22.043Z,13.13
2019-03-10T09:20:03.726Z,13.28
2019-03-10T09:22:56.553Z,13.27
2019-03-10T09:25:37.186Z,13.50
2019-03-10T09:28:18.235Z,13.31
2019-03-10T09:31:02.890Z,13.14
2019-03-10T09:33:49.547Z,13.18
2019-03-10T09:36:30.339Z,13.18
2019-03-10T09:39:25.776Z,13.35
2019-03-10T09:42:15.126Z,13.50
2019-03-10T09:45:10.884Z,13.89
2019-03-10T09:47:56.529Z,13.89
2019-03-10T09:50:46.247Z,13.64
2019-03-10T09:53:31.903Z,13.87
2019-03-10T09:56:13.032Z,14.20
2019-03-10T09:58:59.154Z,14.29
2019-03-10T10:02:03.740Z,14.41
2019-03-10T10:05:06.944Z,14.26
2019-03-10T10:07:53.873Z,14.24
2019-03-10T10:10:40.001Z,13.81
2019-03-10T10:13:29.665Z,13.59
2019-03-10T10:16:15.177Z,13.30
2019-03-10T10:19:20.295Z,12.68
2019-03-10T10:22:10.196Z,12.44
2019-03-10T10:25:09.612Z,12.01
2019-03-10T10:27:58.507Z,11.90
2019-03-10T10:30:50.135Z,11.96
2019-03-10T10:33:42.226Z,11.89
2019-03-10T10:36:32.433Z,11.81
2019-03-10T10:39:32.547Z,11.67
2019-03-10T10:42:18.162Z,11.62
2019-03-10T10:45:10.960Z,11.76
2019-03-10T10:48:04.461Z,11.79
2019-03-10T10:50:47.401Z,11.71
2019-03-10T10:53:34.564Z,11.67
2019-03-10T10:56:30.187Z,11.62
2019-03-10T10:59:20.710Z,11.63
2019-03-10T11:02:10.618Z,11.67
2019-03-10T11:04:49.581Z,11.84
2019-03-10T11:07:33.237Z,12.06
2019-03-10T11:10:21.948Z,12.45
2019-03-10T11:13:15.035Z,12.88
2019-03-10T11:16:07.710Z,13.19
2019-03-10T11:18:54.537Z,13.28
2019-03-10T11:21:27.779Z,13.39
2019-03-10T11:24:06.764Z,13.78
2019-03-10T11:26:56.313Z,14.87
2019-03-10T11:29:35.821Z,15.10
2019-03-10T11:32:31.814Z,14.80
2019-03-10T11:35:16.937Z,15.91
2019-03-10T11:37:51.029Z,15.86
2019-03-10T11:40:42.200Z,15.20
2019-03-10T11:43:34.726Z,15.14
2019-03-10T11:46:22.439Z,16.77
2019-03-10T11:49:08.172Z,14.95
2019-03-10T11:51:57.856Z,14.62
2019-03-10T11:54:37.860Z,15.12
2019-03-10T11:57:24.524Z,15.33
2019-03-10T11:59:58.563Z,15.30
2019-03-10T12:02:48.583Z,15.32
2019-03-10T12:05:36.949Z,15.62
2019-03-10T12:08:13.342Z,15.74
2019-03-10T12:10:40.443Z,15.17
2019-03-10T12:13:07.819Z,15.98
2019-03-10T12:15:34.937Z,16.45
2019-03-10T12:18:02.072Z,17.32
2019-03-10T12:20:29.255Z,17.16
2019-03-10T12:22:56.780Z,17.55
2019-03-10T12:25:23.992Z,17.63
2019-03-10T12:27:51.192Z,18.29
2019-03-10T12:30:18.470Z,18.24
2019-03-10T12:32:45.592Z,18.48
2019-03-10T12:35:12.772Z,19.27
2019-03-10T12:37:39.879Z,17.82
2019-03-10T12:40:07.921Z,15.70
2019-03-10T12:42:34.973Z,16.43
2019-03-10T12:45:02.154Z,16.80
2019-03-10T12:47:32.067Z,15.44
2019-03-10T12:49:59.548Z,15.07
2019-03-10T12:52:26.732Z,15.02
2019-03-10T12:54:53.885Z,15.45
2019-03-10T12:57:23.920Z,16.47
2019-03-10T12:59:51.812Z,18.33
2019-03-10T13:02:18.921Z,16.65
2019-03-10T13:04:45.977Z,16.13
2019-03-10T13:07:13.054Z,15.88
2019-03-10T13:09:40.208Z,15.78
2019-03-10T13:12:09.071Z,17.16
2019-03-10T13:14:36.289Z,16.07
2019-03-10T13:17:03.517Z,16.17
2019-03-10T13:19:31.118Z,16.74
2019-03-10T13:22:08.760Z,17.60
2019-03-10T13:24:35.935Z,17.01
2019-03-10T13:27:03.016Z,16.88
2019-03-10T13:29:30.458Z,16.18
2019-03-10T13:31:57.542Z,16.70
2019-03-10T13:34:24.657Z,16.45
2019-03-10T13:36:53.586Z,15.85
2019-03-10T13:39:21.679Z,15.68
2019-03-10T13:41:48.756Z,16.29
2019-03-10T13:44:16.435Z,17.56
2019-03-10T13:46:45.318Z,17.80
2019-03-10T13:49:12.453Z,17.06
2019-03-10T13:51:39.567Z,16.06
2019-03-10T13:54:08.757Z,15.91
2019-03-10T13:56:37.642Z,15.74
2019-03-10T13:59:05.112Z,15.55
2019-03-10T14:01:32.353Z,15.49
2019-03-10T14:04:00.345Z,15.59
2019-03-10T14:06:27.477Z,16.58
2019-03-10T14:08:55.128Z,17.92
2019-03-10T14:11:22.711Z,17.83
2019-03-10T14:13:49.800Z,17.22
2019-03-10T14:16:16.858Z,15.84
2019-03-10T14:18:43.940Z,16.16
2019-03-10T14:21:11.017Z,16.02
2019-03-10T14:23:38.847Z,15.64
2019-03-10T14:26:07.801Z,15.29
2019-03-10T14:28:34.905Z,15.30
2019-03-10T14:31:02.024Z,15.20
2019-03-10T14:33:29.083Z,16.38
2019-03-10T14:35:56.207Z,16.30
2019-03-10T14:38:23.456Z,15.66
2019-03-10T14:40:50.541Z,16.08
2019-03-10T14:43:17.584Z,16.15
2019-03-10T14:45:44.662Z,15.22
2019-03-10T14:48:11.927Z,14.97
2019-03-10T14:50:39.103Z,15.40
2019-03-10T14:53:06.161Z,16.08
2019-03-10T14:55:33.279Z,15.52
2019-03-10T14:58:00.329Z,16.05
2019-03-10T15:00:27.577Z,16.49
2019-03-10T15:02:54.615Z,15.21
2019-03-10T15:05:21.795Z,15.74
2019-03-10T15:07:51.115Z,15.95
2019-03-10T15:10:18.278Z,16.85
2019-03-10T15:12:45.364Z,16.05
2019-03-10T15:15:21.655Z,16.53
2019-03-10T15:17:42.070Z,16.21
2019-03-10T15:20:09.917Z,16.37
2019-03-10T15:22:38.246Z,15.31
2019-03-10T15:25:06.943Z,14.44
2019-03-10T15:27:35.094Z,14.18
2019-03-10T15:30:03.509Z,14.65
2019-03-10T15:32:30.880Z,14.22
2019-03-10T15:34:58.108Z,14.07
2019-03-10T15:37:25.254Z,13.86
2019-03-10T15:39:53.245Z,13.81
2019-03-10T15:42:20.638Z,13.79
2019-03-10T15:44:50.217Z,13.67
2019-03-10T15:47:18.742Z,13.51
2019-03-10T15:49:46.022Z,13.80
2019-03-10T15:52:13.383Z,13.52
2019-03-10T15:54:40.475Z,13.62
2019-03-10T15:57:07.996Z,13.48
2019-03-10T15:59:35.301Z,13.27
2019-03-10T16:02:02.715Z,13.36
2019-03-10T16:04:29.816Z,13.39
2019-03-10T16:06:57.010Z,13.20
2019-03-10T16:09:24.687Z,13.06
2019-03-10T16:11:51.937Z,12.91
2019-03-10T16:14:19.023Z,13.70
2019-03-10T16:16:46.152Z,13.84
2019-03-10T16:19:13.224Z,14.07
2019-03-10T16:21:40.381Z,13.52
2019-03-10T16:24:07.913Z,13.42
2019-03-10T16:26:35.540Z,13.12
2019-03-10T16:29:02.758Z,13.29
2019-03-10T16:31:30.162Z,13.19
2019-03-10T16:33:58.857Z,12.94
2019-03-10T16:36:26.270Z,12.68
2019-03-10T16:38:53.461Z,12.41
2019-03-10T16:41:20.680Z,12.26
2019-03-10T16:43:48.897Z,12.35
2019-03-10T16:46:17.284Z,12.30
2019-03-10T16:48:44.410Z,12.29
2019-03-10T16:51:12.090Z,12.26
2019-03-10T16:53:41.618Z,12.20
2019-03-10T16:56:08.293Z,11.97
2019-03-10T16:58:35.404Z,11.85
2019-03-10T17:01:02.472Z,11.87
2019-03-10T17:03:29.861Z,11.93
2019-03-10T17:05:57.248Z,11.86
2019-03-10T17:08:26.528Z,11.72
2019-03-10T17:10:53.699Z,11.63
2019-03-10T17:13:20.856Z,11.51
2019-03-10T17:15:47.989Z,11.51
2019-03-10T17:18:15.597Z,11.50
2019-03-10T17:20:42.710Z,11.50
2019-03-10T17:23:09.746Z,11.40
2019-03-10T17:25:36.922Z,11.24
2019-03-10T17:28:04.611Z,11.21
2019-03-10T17:30:31.748Z,11.14
2019-03-10T17:32:59.092Z,11.12
2019-03-10T17:35:26.194Z,11.10
2019-03-10T17:37:53.923Z,11.12
2019-03-10T17:40:21.211Z,11.12
2019-03-10T17:42:48.564Z,10.94
2019-03-10T17:45:17.291Z,10.96
2019-03-10T17:47:44.617Z,11.01
2019-03-10T17:50:12.060Z,10.97
2019-03-10T17:52:39.157Z,10.95
2019-03-10T17:55:06.664Z,10.92
2019-03-10T17:57:34.038Z,10.92
2019-03-10T18:00:02.637Z,10.84
2019-03-10T18:02:30.996Z,10.82
2019-03-10T18:05:00.371Z,10.73
2019-03-10T18:07:30.004Z,10.61
2019-03-10T18:09:57.401Z,10.45
2019-03-10T18:12:24.519Z,10.44
2019-03-10T18:14:51.648Z,10.49
2019-03-10T18:17:18.742Z,10.48
2019-03-10T18:19:45.825Z,10.44
2019-03-10T18:22:26.441Z,10.41
2019-03-10T18:24:55.084Z,10.33
2019-03-10T18:27:22.772Z,9.28
2019-03-10T18:29:49.930Z,8.58
2019-03-10T18:32:17.089Z,8.28
2019-03-10T18:34:44.471Z,8.06
2019-03-10T18:37:11.534Z,7.29
2019-03-10T18:39:39.019Z,7.12
2019-03-10T18:42:06.534Z,7.24
2019-03-10T18:44:33.604Z,7.22
2019-03-10T18:47:00.714Z,7.26
2019-03-10T18:49:30.086Z,7.48
2019-03-10T18:51:57.214Z,7.49
2019-03-10T18:54:24.359Z,7.46
2019-03-10T18:56:51.607Z,7.41
2019-03-10T18:59:20.719Z,7.59
2019-03-10T19:01:52.090Z,7.55
2019-03-10T19:04:19.493Z,7.57
2019-03-10T19:06:46.669Z,7.58
2019-03-10T19:09:16.369Z,7.74
2019-03-10T19:11:44.025Z,7.70
2019-03-10T19:14:12.232Z,7.63
2019-03-10T19:16:39.357Z,7.67
2019-03-10T19:19:07.200Z,7.68
2019-03-10T19:21:35.450Z,7.64
2019-03-10T19:24:03.064Z,7.67
2019-03-10T19:26:31.140Z,7.64
2019-03-10T19:28:58.317Z,7.67
2019-03-10T19:31:25.494Z,7.63
2019-03-10T19:33:53.064Z,7.70
2019-03-10T19:36:21.685Z,7.69
2019-03-10T19:38:50.979Z,7.66
2019-03-10T19:41:18.688Z,7.64
2019-03-10T19:43:47.636Z,7.58
2019-03-10T19:46:14.827Z,7.56
2019-03-10T19:48:42.013Z,7.53
2019-03-10T19:51:09.428Z,7.47
2019-03-10T19:53:36.735Z,7.44
2019-03-10T19:56:04.216Z,7.38
2019-03-10T19:58:31.951Z,7.25
2019-03-10T20:00:59.134Z,7.16
2019-03-10T20:03:28.295Z,7.15
2019-03-10T20:05:55.577Z,7.14
2019-03-10T20:08:22.715Z,7.19
2019-03-10T20:10:49.891Z,6.89
2019-03-10T20:13:18.598Z,6.75
2019-03-10T20:15:45.776Z,6.71
2019-03-10T20:18:12.870Z,6.57
2019-03-10T20:20:40.934Z,6.38
2019-03-10T20:23:08.445Z,6.07
2019-03-10T20:25:35.520Z,5.97
2019-03-10T20:28:02.626Z,5.78
2019-03-10T20:30:30.508Z,5.77
2019-03-10T20:32:57.582Z,5.61
2019-03-10T20:35:24.931Z,5.51
2019-03-10T20:37:54.976Z,5.44
2019-03-10T20:40:22.312Z,5.27
2019-03-10T20:42:56.798Z,5.41
2019-03-10T20:45:28.344Z,5.43
2019-03-10T20:47:57.049Z,5.41
2019-03-10T20:50:24.275Z,5.44
2019-03-10T20:52:53.562Z,5.36
2019-03-10T20:55:20.700Z,5.41
2019-03-10T20:57:49.721Z,5.44
2019-03-10T21:00:17.126Z,5.40
2019-03-10T21:02:45.419Z,5.44
2019-03-10T21:05:13.004Z,5.37
2019-03-10T21:08:32.676Z,5.43
2019-03-10T21:14:12.999Z,5.57
2019-03-10T21:16:40.106Z,5.62
2019-03-10T21:19:07.450Z,5.73
2019-03-10T21:21:36.002Z,5.82
2019-03-10T21:24:03.086Z,5.59
2019-03-10T21:26:30.643Z,5.41
2019-03-10T21:28:58.100Z,5.26
2019-03-10T21:31:25.198Z,5.26
2019-03-10T21:33:52.330Z,5.42
2019-03-10T21:36:19.869Z,5.34
2019-03-10T21:38:46.949Z,5.44
2019-03-10T21:41:14.708Z,5.28
2019-03-10T21:43:43.047Z,5.20
2019-03-10T21:46:10.240Z,5.13
2019-03-10T21:48:37.357Z,5.07
2019-03-10T21:51:04.441Z,5.02
2019-03-10T21:53:31.505Z,4.91
2019-03-10T21:55:59.077Z,4.86
2019-03-10T21:58:26.167Z,4.76
2019-03-10T22:00:53.263Z,4.70
2019-03-10T22:03:20.316Z,4.56
2019-03-10T22:05:47.398Z,4.50
2019-03-10T22:08:14.768Z,4.45
2019-03-10T22:10:41.859Z,4.40
2019-03-10T22:13:09.301Z,4.38
2019-03-10T22:15:41.580Z,4.39
2019-03-10T22:18:05.929Z,4.31
2019-03-10T22:20:33.081Z,4.26
2019-03-10T22:23:00.148Z,4.26
2019-03-10T22:25:27.220Z,4.16
2019-03-10T22:27:54.417Z,4.21
2019-03-10T22:30:21.681Z,4.19
2019-03-10T22:32:49.302Z,4.15
2019-03-10T22:35:16.364Z,4.13
2019-03-10T22:37:44.944Z,4.23
2019-03-10T22:40:12.238Z,4.23
2019-03-10T22:42:39.611Z,4.33
2019-03-10T22:45:08.049Z,4.52
2019-03-10T22:47:35.071Z,4.58
2019-03-10T22:50:02.923Z,4.67
2019-03-10T22:52:32.209Z,4.66
2019-03-10T22:54:59.795Z,4.72
2019-03-10T22:57:30.277Z,4.67
2019-03-10T22:59:57.817Z,4.64
2019-03-10T23:02:24.868Z,4.41
2019-03-10T23:04:51.911Z,4.47
2019-03-10T23:07:19.065Z,4.38
2019-03-10T23:09:46.130Z,4.53
2019-03-10T23:12:13.241Z,4.49
2019-03-10T23:14:42.107Z,4.42
2019-03-10T23:17:09.143Z,4.34
2019-03-10T23:19:36.358Z,4.49
2019-03-10T23:22:03.413Z,4.63
2019-03-10T23:24:30.455Z,4.66
2019-03-10T23:26:58.232Z,4.80
2019-03-10T23:29:25.457Z,4.82
2019-03-10T23:31:52.603Z,4.96
2019-03-10T23:34:19.674Z,4.93
2019-03-10T23:36:46.733Z,4.99
2019-03-10T23:39:13.780Z,4.97
2019-03-10T23:41:41.349Z,4.98
2019-03-10T23:44:08.394Z,4.86
2019-03-10T23:46:35.469Z,4.79
2019-03-10T23:49:02.541Z,4.69
2019-03-10T23:51:29.654Z,4.63
2019-03-10T23:53:58.313Z,4.66
2019-03-10T23:56:25.647Z,4.59
2019-03-10T23:58:52.711Z,4.60
